sensor_id;sensor_type;location;lat;lon;timestamp;temperature;humidity
30893;DHT22;17595;50.884;4.346;2023-07-09T00:02:13;25.60;99.90
30893;DHT22;17595;50.884;4.346;2023-07-09T00:04:40;25.60;99.90
30893;DHT22;17595;50.884;4.346;2023-07-09T00:07:15;25.60;99.90
30893;DHT22;17595;50.884;4.346;2023-07-09T00:09:41;25.60;99.90
30893;DHT22;17595;50.884;4.346;2023-07-09T00:12:13;25.50;99.90
30893;DHT22;17595;50.884;4.346;2023-07-09T00:14:39;25.50;99.90
30893;DHT22;17595;50.884;4.346;2023-07-09T00:17:09;25.50;99.90
30893;DHT22;17595;50.884;4.346;2023-07-09T00:19:36;25.50;99.90
30893;DHT22;17595;50.884;4.346;2023-07-09T00:22:14;25.50;99.90
30893;DHT22;17595;50.884;4.346;2023-07-09T00:24:44;25.50;99.90
30893;DHT22;17595;50.884;4.346;2023-07-09T00:27:11;25.50;99.90
30893;DHT22;17595;50.884;4.346;2023-07-09T00:29:37;25.40;99.90
30893;DHT22;17595;50.884;4.346;2023-07-09T00:32:03;25.40;99.90
30893;DHT22;17595;50.884;4.346;2023-07-09T00:34:28;25.40;99.90
30893;DHT22;17595;50.884;4.346;2023-07-09T00:36:54;25.40;99.90
30893;DHT22;17595;50.884;4.346;2023-07-09T00:39:22;25.30;99.90
30893;DHT22;17595;50.884;4.346;2023-07-09T00:41:48;25.30;99.90
30893;DHT22;17595;50.884;4.346;2023-07-09T00:49:30;25.30;99.90
30893;DHT22;17595;50.884;4.346;2023-07-09T00:51:59;25.20;99.90
30893;DHT22;17595;50.884;4.346;2023-07-09T00:54:28;25.20;99.90
30893;DHT22;17595;50.884;4.346;2023-07-09T00:57:00;25.20;99.90
30893;DHT22;17595;50.884;4.346;2023-07-09T00:59:28;25.20;99.90
30893;DHT22;17595;50.884;4.346;2023-07-09T01:01:56;25.10;99.90
30893;DHT22;17595;50.884;4.346;2023-07-09T01:04:23;25.10;99.90
30893;DHT22;17595;50.884;4.346;2023-07-09T01:06:52;25.10;99.90
30893;DHT22;17595;50.884;4.346;2023-07-09T01:09:18;25.10;99.90
30893;DHT22;17595;50.884;4.346;2023-07-09T01:11:44;25.10;99.90
30893;DHT22;17595;50.884;4.346;2023-07-09T01:14:12;25.10;99.90
30893;DHT22;17595;50.884;4.346;2023-07-09T01:16:45;25.10;99.90
30893;DHT22;17595;50.884;4.346;2023-07-09T01:19:13;25.00;99.90
30893;DHT22;17595;50.884;4.346;2023-07-09T01:21:39;25.00;99.90
30893;DHT22;17595;50.884;4.346;2023-07-09T01:24:13;25.00;99.90
30893;DHT22;17595;50.884;4.346;2023-07-09T01:26:45;25.00;99.90
30893;DHT22;17595;50.884;4.346;2023-07-09T01:29:12;25.00;99.90
30893;DHT22;17595;50.884;4.346;2023-07-09T01:31:37;25.00;99.90
30893;DHT22;17595;50.884;4.346;2023-07-09T01:34:03;24.90;99.90
30893;DHT22;17595;50.884;4.346;2023-07-09T01:36:28;24.90;99.90
30893;DHT22;17595;50.884;4.346;2023-07-09T01:38:56;24.90;99.90
30893;DHT22;17595;50.884;4.346;2023-07-09T01:41:21;24.90;99.90
30893;DHT22;17595;50.884;4.346;2023-07-09T01:43:47;24.90;99.90
30893;DHT22;17595;50.884;4.346;2023-07-09T01:46:13;24.90;99.90
30893;DHT22;17595;50.884;4.346;2023-07-09T01:48:39;24.90;99.90
30893;DHT22;17595;50.884;4.346;2023-07-09T01:51:10;24.90;99.90
30893;DHT22;17595;50.884;4.346;2023-07-09T01:53:38;24.90;99.90
30893;DHT22;17595;50.884;4.346;2023-07-09T01:56:05;24.90;99.90
30893;DHT22;17595;50.884;4.346;2023-07-09T01:58:33;24.90;99.90
30893;DHT22;17595;50.884;4.346;2023-07-09T02:00:59;24.90;99.90
30893;DHT22;17595;50.884;4.346;2023-07-09T02:03:25;24.80;99.90
30893;DHT22;17595;50.884;4.346;2023-07-09T02:05:54;24.80;99.90
30893;DHT22;17595;50.884;4.346;2023-07-09T02:08:20;24.70;99.90
30893;DHT22;17595;50.884;4.346;2023-07-09T02:10:49;24.70;99.90
30893;DHT22;17595;50.884;4.346;2023-07-09T02:13:16;24.70;99.90
30893;DHT22;17595;50.884;4.346;2023-07-09T02:15:43;24.80;99.90
30893;DHT22;17595;50.884;4.346;2023-07-09T02:18:10;24.90;99.90
30893;DHT22;17595;50.884;4.346;2023-07-09T02:20:36;25.00;99.90
30893;DHT22;17595;50.884;4.346;2023-07-09T02:23:02;24.90;99.90
30893;DHT22;17595;50.884;4.346;2023-07-09T02:25:28;24.80;99.90
30893;DHT22;17595;50.884;4.346;2023-07-09T02:27:54;24.80;99.90
30893;DHT22;17595;50.884;4.346;2023-07-09T02:30:19;24.70;99.90
30893;DHT22;17595;50.884;4.346;2023-07-09T02:32:45;24.70;99.90
30893;DHT22;17595;50.884;4.346;2023-07-09T02:35:11;24.70;99.90
30893;DHT22;17595;50.884;4.346;2023-07-09T02:37:36;24.60;99.90
30893;DHT22;17595;50.884;4.346;2023-07-09T02:40:03;24.60;99.90
30893;DHT22;17595;50.884;4.346;2023-07-09T02:42:29;24.60;99.90
30893;DHT22;17595;50.884;4.346;2023-07-09T02:44:55;24.60;99.90
30893;DHT22;17595;50.884;4.346;2023-07-09T02:47:20;24.60;99.90
30893;DHT22;17595;50.884;4.346;2023-07-09T02:49:46;24.60;99.90
30893;DHT22;17595;50.884;4.346;2023-07-09T02:52:11;24.50;99.90
30893;DHT22;17595;50.884;4.346;2023-07-09T02:54:37;24.50;99.90
30893;DHT22;17595;50.884;4.346;2023-07-09T02:57:03;24.50;99.90
30893;DHT22;17595;50.884;4.346;2023-07-09T02:59:29;24.50;99.90
30893;DHT22;17595;50.884;4.346;2023-07-09T03:01:55;24.60;99.90
30893;DHT22;17595;50.884;4.346;2023-07-09T03:04:21;24.50;99.90
30893;DHT22;17595;50.884;4.346;2023-07-09T03:06:47;24.50;99.90
30893;DHT22;17595;50.884;4.346;2023-07-09T03:09:13;24.50;99.90
30893;DHT22;17595;50.884;4.346;2023-07-09T03:11:38;24.50;99.90
30893;DHT22;17595;50.884;4.346;2023-07-09T03:14:04;24.60;99.90
30893;DHT22;17595;50.884;4.346;2023-07-09T03:16:32;24.60;99.90
30893;DHT22;17595;50.884;4.346;2023-07-09T03:18:58;24.60;99.90
30893;DHT22;17595;50.884;4.346;2023-07-09T03:21:26;24.60;99.90
30893;DHT22;17595;50.884;4.346;2023-07-09T03:23:53;24.50;99.90
30893;DHT22;17595;50.884;4.346;2023-07-09T03:26:19;24.40;99.90
30893;DHT22;17595;50.884;4.346;2023-07-09T03:28:45;24.20;99.90
30893;DHT22;17595;50.884;4.346;2023-07-09T03:31:11;24.20;99.90
30893;DHT22;17595;50.884;4.346;2023-07-09T03:33:36;24.30;99.90
30893;DHT22;17595;50.884;4.346;2023-07-09T03:36:03;24.50;99.90
30893;DHT22;17595;50.884;4.346;2023-07-09T03:38:30;24.40;99.90
30893;DHT22;17595;50.884;4.346;2023-07-09T03:40:55;24.40;99.90
30893;DHT22;17595;50.884;4.346;2023-07-09T03:43:22;24.40;99.90
30893;DHT22;17595;50.884;4.346;2023-07-09T03:45:48;24.40;99.90
30893;DHT22;17595;50.884;4.346;2023-07-09T03:48:15;24.30;99.90
30893;DHT22;17595;50.884;4.346;2023-07-09T03:50:43;24.20;99.90
30893;DHT22;17595;50.884;4.346;2023-07-09T03:53:09;24.20;99.90
30893;DHT22;17595;50.884;4.346;2023-07-09T03:55:34;24.20;99.90
30893;DHT22;17595;50.884;4.346;2023-07-09T03:58:00;24.20;99.90
30893;DHT22;17595;50.884;4.346;2023-07-09T04:00:28;24.10;99.90
30893;DHT22;17595;50.884;4.346;2023-07-09T04:02:54;24.10;99.90
30893;DHT22;17595;50.884;4.346;2023-07-09T04:05:22;24.10;99.90
30893;DHT22;17595;50.884;4.346;2023-07-09T04:07:48;24.00;99.90
30893;DHT22;17595;50.884;4.346;2023-07-09T04:10:14;24.10;99.90
30893;DHT22;17595;50.884;4.346;2023-07-09T04:12:40;24.10;99.90
30893;DHT22;17595;50.884;4.346;2023-07-09T04:15:07;24.10;99.90
30893;DHT22;17595;50.884;4.346;2023-07-09T04:17:33;24.20;99.90
30893;DHT22;17595;50.884;4.346;2023-07-09T04:19:58;24.20;99.90
30893;DHT22;17595;50.884;4.346;2023-07-09T04:22:24;24.20;99.90
30893;DHT22;17595;50.884;4.346;2023-07-09T04:24:50;24.20;99.90
30893;DHT22;17595;50.884;4.346;2023-07-09T04:27:18;24.30;99.90
30893;DHT22;17595;50.884;4.346;2023-07-09T04:29:43;24.30;99.90
30893;DHT22;17595;50.884;4.346;2023-07-09T04:32:14;24.40;99.90
30893;DHT22;17595;50.884;4.346;2023-07-09T04:34:40;24.40;99.90
30893;DHT22;17595;50.884;4.346;2023-07-09T04:37:07;24.40;99.90
30893;DHT22;17595;50.884;4.346;2023-07-09T04:39:34;24.40;99.90
30893;DHT22;17595;50.884;4.346;2023-07-09T04:42:00;24.40;99.90
30893;DHT22;17595;50.884;4.346;2023-07-09T04:44:25;24.40;99.90
30893;DHT22;17595;50.884;4.346;2023-07-09T04:46:51;24.50;99.90
30893;DHT22;17595;50.884;4.346;2023-07-09T04:49:16;24.40;99.90
30893;DHT22;17595;50.884;4.346;2023-07-09T04:51:42;24.40;99.90
30893;DHT22;17595;50.884;4.346;2023-07-09T04:54:08;24.40;99.90
30893;DHT22;17595;50.884;4.346;2023-07-09T04:56:33;24.40;99.90
30893;DHT22;17595;50.884;4.346;2023-07-09T04:58:59;24.40;99.90
30893;DHT22;17595;50.884;4.346;2023-07-09T05:01:25;24.50;99.90
30893;DHT22;17595;50.884;4.346;2023-07-09T05:03:50;24.40;99.90
30893;DHT22;17595;50.884;4.346;2023-07-09T05:06:16;24.40;99.90
30893;DHT22;17595;50.884;4.346;2023-07-09T05:08:42;24.40;99.90
30893;DHT22;17595;50.884;4.346;2023-07-09T05:11:09;24.40;99.90
30893;DHT22;17595;50.884;4.346;2023-07-09T05:13:36;24.50;99.90
30893;DHT22;17595;50.884;4.346;2023-07-09T05:16:02;24.40;99.90
30893;DHT22;17595;50.884;4.346;2023-07-09T05:18:28;24.50;99.90
30893;DHT22;17595;50.884;4.346;2023-07-09T05:20:54;24.50;99.90
30893;DHT22;17595;50.884;4.346;2023-07-09T05:23:23;24.50;99.90
30893;DHT22;17595;50.884;4.346;2023-07-09T05:25:50;24.50;99.90
30893;DHT22;17595;50.884;4.346;2023-07-09T05:28:15;24.50;99.90
30893;DHT22;17595;50.884;4.346;2023-07-09T05:30:42;24.60;99.90
30893;DHT22;17595;50.884;4.346;2023-07-09T05:33:07;24.40;99.90
30893;DHT22;17595;50.884;4.346;2023-07-09T05:35:33;24.40;99.90
30893;DHT22;17595;50.884;4.346;2023-07-09T05:37:59;24.30;99.90
30893;DHT22;17595;50.884;4.346;2023-07-09T05:40:24;24.40;99.90
30893;DHT22;17595;50.884;4.346;2023-07-09T05:42:50;24.50;99.90
30893;DHT22;17595;50.884;4.346;2023-07-09T05:45:15;24.60;99.90
30893;DHT22;17595;50.884;4.346;2023-07-09T05:47:41;24.70;99.90
30893;DHT22;17595;50.884;4.346;2023-07-09T05:50:07;24.70;99.90
30893;DHT22;17595;50.884;4.346;2023-07-09T05:52:33;24.80;99.90
30893;DHT22;17595;50.884;4.346;2023-07-09T05:54:59;24.80;99.90
30893;DHT22;17595;50.884;4.346;2023-07-09T05:57:25;24.80;99.90
30893;DHT22;17595;50.884;4.346;2023-07-09T05:59:51;25.00;99.90
30893;DHT22;17595;50.884;4.346;2023-07-09T06:02:19;24.90;99.90
30893;DHT22;17595;50.884;4.346;2023-07-09T06:04:46;24.80;99.90
30893;DHT22;17595;50.884;4.346;2023-07-09T06:07:12;24.60;99.90
30893;DHT22;17595;50.884;4.346;2023-07-09T06:09:39;24.40;99.90
30893;DHT22;17595;50.884;4.346;2023-07-09T06:12:05;24.40;99.90
30893;DHT22;17595;50.884;4.346;2023-07-09T06:14:32;24.20;99.90
30893;DHT22;17595;50.884;4.346;2023-07-09T06:16:58;24.20;99.90
30893;DHT22;17595;50.884;4.346;2023-07-09T06:19:24;24.40;99.90
30893;DHT22;17595;50.884;4.346;2023-07-09T06:21:49;24.40;99.90
30893;DHT22;17595;50.884;4.346;2023-07-09T06:24:15;24.40;99.90
30893;DHT22;17595;50.884;4.346;2023-07-09T06:26:41;24.40;99.90
30893;DHT22;17595;50.884;4.346;2023-07-09T06:29:06;24.40;99.90
30893;DHT22;17595;50.884;4.346;2023-07-09T06:31:32;24.40;99.90
30893;DHT22;17595;50.884;4.346;2023-07-09T06:33:57;24.40;99.90
30893;DHT22;17595;50.884;4.346;2023-07-09T06:36:23;24.60;99.90
30893;DHT22;17595;50.884;4.346;2023-07-09T06:38:49;24.70;99.90
30893;DHT22;17595;50.884;4.346;2023-07-09T06:41:15;24.60;99.90
30893;DHT22;17595;50.884;4.346;2023-07-09T06:43:41;24.60;99.90
30893;DHT22;17595;50.884;4.346;2023-07-09T06:46:12;24.70;99.90
30893;DHT22;17595;50.884;4.346;2023-07-09T06:48:38;25.00;99.90
30893;DHT22;17595;50.884;4.346;2023-07-09T06:51:04;24.70;99.90
30893;DHT22;17595;50.884;4.346;2023-07-09T06:53:30;24.60;99.90
30893;DHT22;17595;50.884;4.346;2023-07-09T06:55:56;24.40;99.90
30893;DHT22;17595;50.884;4.346;2023-07-09T06:58:25;24.30;99.90
30893;DHT22;17595;50.884;4.346;2023-07-09T07:00:53;24.20;99.90
30893;DHT22;17595;50.884;4.346;2023-07-09T07:03:20;24.10;99.90
30893;DHT22;17595;50.884;4.346;2023-07-09T07:05:46;24.00;99.90
30893;DHT22;17595;50.884;4.346;2023-07-09T07:08:15;24.10;99.90
30893;DHT22;17595;50.884;4.346;2023-07-09T07:10:41;24.20;99.90
30893;DHT22;17595;50.884;4.346;2023-07-09T07:13:07;24.60;99.90
30893;DHT22;17595;50.884;4.346;2023-07-09T07:15:32;24.60;99.90
30893;DHT22;17595;50.884;4.346;2023-07-09T07:17:58;24.60;99.90
30893;DHT22;17595;50.884;4.346;2023-07-09T07:20:24;24.70;99.90
30893;DHT22;17595;50.884;4.346;2023-07-09T07:22:49;24.70;99.90
30893;DHT22;17595;50.884;4.346;2023-07-09T07:25:15;24.60;99.90
30893;DHT22;17595;50.884;4.346;2023-07-09T07:27:41;24.50;99.90
30893;DHT22;17595;50.884;4.346;2023-07-09T07:30:07;24.70;99.90
30893;DHT22;17595;50.884;4.346;2023-07-09T07:32:34;24.70;99.90
30893;DHT22;17595;50.884;4.346;2023-07-09T07:35:00;24.60;99.90
30893;DHT22;17595;50.884;4.346;2023-07-09T07:37:25;24.80;99.90
30893;DHT22;17595;50.884;4.346;2023-07-09T07:39:51;24.80;99.90
30893;DHT22;17595;50.884;4.346;2023-07-09T07:42:17;25.10;99.90
30893;DHT22;17595;50.884;4.346;2023-07-09T07:44:42;25.00;99.90
30893;DHT22;17595;50.884;4.346;2023-07-09T07:47:08;24.80;99.90
30893;DHT22;17595;50.884;4.346;2023-07-09T07:49:34;25.00;99.90
30893;DHT22;17595;50.884;4.346;2023-07-09T07:51:59;24.90;99.90
30893;DHT22;17595;50.884;4.346;2023-07-09T07:54:28;24.70;99.90
30893;DHT22;17595;50.884;4.346;2023-07-09T07:56:54;24.70;99.90
30893;DHT22;17595;50.884;4.346;2023-07-09T07:59:20;24.60;99.90
30893;DHT22;17595;50.884;4.346;2023-07-09T08:01:45;24.60;99.90
30893;DHT22;17595;50.884;4.346;2023-07-09T08:04:11;24.50;99.90
30893;DHT22;17595;50.884;4.346;2023-07-09T08:06:36;24.40;99.90
30893;DHT22;17595;50.884;4.346;2023-07-09T08:09:02;24.40;99.90
30893;DHT22;17595;50.884;4.346;2023-07-09T08:11:27;24.50;99.90
30893;DHT22;17595;50.884;4.346;2023-07-09T08:13:55;24.60;99.90
30893;DHT22;17595;50.884;4.346;2023-07-09T08:16:21;24.60;99.90
30893;DHT22;17595;50.884;4.346;2023-07-09T08:18:47;24.60;99.90
30893;DHT22;17595;50.884;4.346;2023-07-09T08:21:12;24.70;99.90
30893;DHT22;17595;50.884;4.346;2023-07-09T08:23:38;24.70;99.90
30893;DHT22;17595;50.884;4.346;2023-07-09T08:26:04;24.70;99.90
30893;DHT22;17595;50.884;4.346;2023-07-09T08:28:30;24.80;99.90
30893;DHT22;17595;50.884;4.346;2023-07-09T08:30:56;24.80;99.90
30893;DHT22;17595;50.884;4.346;2023-07-09T08:33:22;24.90;99.90
30893;DHT22;17595;50.884;4.346;2023-07-09T08:35:51;25.20;99.90
30893;DHT22;17595;50.884;4.346;2023-07-09T08:38:17;25.20;99.90
30893;DHT22;17595;50.884;4.346;2023-07-09T08:41:01;25.60;99.90
30893;DHT22;17595;50.884;4.346;2023-07-09T08:43:34;25.70;99.90
30893;DHT22;17595;50.884;4.346;2023-07-09T08:48:46;25.90;99.90
30893;DHT22;17595;50.884;4.346;2023-07-09T08:53:48;26.10;99.90
30893;DHT22;17595;50.884;4.346;2023-07-09T08:56:15;25.90;99.90
30893;DHT22;17595;50.884;4.346;2023-07-09T08:58:41;26.20;99.90
30893;DHT22;17595;50.884;4.346;2023-07-09T09:04:08;26.30;99.90
30893;DHT22;17595;50.884;4.346;2023-07-09T09:06:38;26.30;99.90
30893;DHT22;17595;50.884;4.346;2023-07-09T09:14:01;25.70;99.90
30893;DHT22;17595;50.884;4.346;2023-07-09T09:16:30;25.70;99.90
30893;DHT22;17595;50.884;4.346;2023-07-09T09:18:57;25.80;99.90
30893;DHT22;17595;50.884;4.346;2023-07-09T09:21:33;25.70;99.90
30893;DHT22;17595;50.884;4.346;2023-07-09T09:24:05;25.80;99.90
30893;DHT22;17595;50.884;4.346;2023-07-09T09:26:36;25.80;99.90
30893;DHT22;17595;50.884;4.346;2023-07-09T09:29:09;25.90;99.90
30893;DHT22;17595;50.884;4.346;2023-07-09T09:31:35;25.80;99.90
30893;DHT22;17595;50.884;4.346;2023-07-09T09:34:01;26.00;99.90
30893;DHT22;17595;50.884;4.346;2023-07-09T09:36:26;26.10;99.90
30893;DHT22;17595;50.884;4.346;2023-07-09T09:38:53;26.20;99.90
30893;DHT22;17595;50.884;4.346;2023-07-09T09:41:23;26.10;99.90
30893;DHT22;17595;50.884;4.346;2023-07-09T09:43:51;26.30;99.90
30893;DHT22;17595;50.884;4.346;2023-07-09T09:46:23;26.40;99.90
30893;DHT22;17595;50.884;4.346;2023-07-09T09:48:50;26.70;99.90
30893;DHT22;17595;50.884;4.346;2023-07-09T09:51:17;26.50;99.90
30893;DHT22;17595;50.884;4.346;2023-07-09T09:53:50;26.40;99.90
30893;DHT22;17595;50.884;4.346;2023-07-09T09:56:27;26.30;99.90
30893;DHT22;17595;50.884;4.346;2023-07-09T09:58:53;26.30;99.90
30893;DHT22;17595;50.884;4.346;2023-07-09T10:01:19;26.30;99.90
30893;DHT22;17595;50.884;4.346;2023-07-09T10:03:47;26.30;99.90
30893;DHT22;17595;50.884;4.346;2023-07-09T10:06:20;26.30;99.90
30893;DHT22;17595;50.884;4.346;2023-07-09T10:09:04;26.40;99.90
30893;DHT22;17595;50.884;4.346;2023-07-09T10:11:44;26.40;99.90
30893;DHT22;17595;50.884;4.346;2023-07-09T10:14:54;26.40;99.90
30893;DHT22;17595;50.884;4.346;2023-07-09T10:17:18;26.50;99.90
30893;DHT22;17595;50.884;4.346;2023-07-09T10:22:13;26.70;99.90
30893;DHT22;17595;50.884;4.346;2023-07-09T10:30:08;26.90;99.90
30893;DHT22;17595;50.884;4.346;2023-07-09T10:32:47;26.90;99.90
30893;DHT22;17595;50.884;4.346;2023-07-09T10:35:24;26.90;99.90
30893;DHT22;17595;50.884;4.346;2023-07-09T10:40:30;27.10;99.90
30893;DHT22;17595;50.884;4.346;2023-07-09T10:42:57;27.30;99.90
30893;DHT22;17595;50.884;4.346;2023-07-09T10:45:40;26.90;99.90
30893;DHT22;17595;50.884;4.346;2023-07-09T10:48:08;26.80;99.90
30893;DHT22;17595;50.884;4.346;2023-07-09T10:50:38;26.70;99.90
30893;DHT22;17595;50.884;4.346;2023-07-09T10:53:08;26.60;99.90
30893;DHT22;17595;50.884;4.346;2023-07-09T10:58:13;26.70;99.90
30893;DHT22;17595;50.884;4.346;2023-07-09T11:00:44;26.80;99.90
30893;DHT22;17595;50.884;4.346;2023-07-09T11:03:13;26.80;99.90
30893;DHT22;17595;50.884;4.346;2023-07-09T11:05:41;27.10;99.90
30893;DHT22;17595;50.884;4.346;2023-07-09T11:08:13;26.90;99.90
30893;DHT22;17595;50.884;4.346;2023-07-09T11:10:46;26.90;99.90
30893;DHT22;17595;50.884;4.346;2023-07-09T11:13:17;27.10;99.90
30893;DHT22;17595;50.884;4.346;2023-07-09T11:15:45;27.20;99.90
30893;DHT22;17595;50.884;4.346;2023-07-09T11:18:13;26.80;99.90
30893;DHT22;17595;50.884;4.346;2023-07-09T11:20:44;26.90;99.90
30893;DHT22;17595;50.884;4.346;2023-07-09T11:23:20;26.90;99.90
30893;DHT22;17595;50.884;4.346;2023-07-09T11:26:00;27.10;99.90
30893;DHT22;17595;50.884;4.346;2023-07-09T11:28:35;27.10;99.90
30893;DHT22;17595;50.884;4.346;2023-07-09T11:31:05;27.00;99.90
30893;DHT22;17595;50.884;4.346;2023-07-09T11:33:31;26.80;99.90
30893;DHT22;17595;50.884;4.346;2023-07-09T11:36:13;26.60;99.90
30893;DHT22;17595;50.884;4.346;2023-07-09T11:38:44;26.50;99.90
30893;DHT22;17595;50.884;4.346;2023-07-09T11:44:10;26.70;99.90
30893;DHT22;17595;50.884;4.346;2023-07-09T11:46:40;27.10;99.90
30893;DHT22;17595;50.884;4.346;2023-07-09T11:49:09;27.10;99.90
30893;DHT22;17595;50.884;4.346;2023-07-09T11:51:42;26.90;99.90
30893;DHT22;17595;50.884;4.346;2023-07-09T11:54:11;26.80;99.90
30893;DHT22;17595;50.884;4.346;2023-07-09T11:56:38;26.60;99.90
30893;DHT22;17595;50.884;4.346;2023-07-09T11:59:03;26.40;99.90
30893;DHT22;17595;50.884;4.346;2023-07-09T12:01:42;26.40;99.90
30893;DHT22;17595;50.884;4.346;2023-07-09T12:04:11;26.20;99.90
30893;DHT22;17595;50.884;4.346;2023-07-09T12:06:37;26.20;99.90
30893;DHT22;17595;50.884;4.346;2023-07-09T12:09:03;26.10;99.90
30893;DHT22;17595;50.884;4.346;2023-07-09T12:14:00;26.10;99.90
30893;DHT22;17595;50.884;4.346;2023-07-09T12:16:28;26.10;99.90
30893;DHT22;17595;50.884;4.346;2023-07-09T12:18:54;26.00;99.90
30893;DHT22;17595;50.884;4.346;2023-07-09T12:21:19;26.00;99.90
30893;DHT22;17595;50.884;4.346;2023-07-09T12:23:45;26.10;99.90
30893;DHT22;17595;50.884;4.346;2023-07-09T12:26:12;26.20;99.90
30893;DHT22;17595;50.884;4.346;2023-07-09T12:28:38;26.30;99.90
30893;DHT22;17595;50.884;4.346;2023-07-09T12:31:04;26.40;99.90
30893;DHT22;17595;50.884;4.346;2023-07-09T12:33:29;26.50;99.90
30893;DHT22;17595;50.884;4.346;2023-07-09T12:35:56;26.40;99.90
30893;DHT22;17595;50.884;4.346;2023-07-09T12:38:23;26.40;99.90
30893;DHT22;17595;50.884;4.346;2023-07-09T12:40:49;26.50;99.90
30893;DHT22;17595;50.884;4.346;2023-07-09T12:43:17;26.60;99.90
30893;DHT22;17595;50.884;4.346;2023-07-09T12:45:45;26.50;99.90
30893;DHT22;17595;50.884;4.346;2023-07-09T12:48:10;26.60;99.90
30893;DHT22;17595;50.884;4.346;2023-07-09T12:50:38;26.50;99.90
30893;DHT22;17595;50.884;4.346;2023-07-09T12:53:14;26.50;99.90
30893;DHT22;17595;50.884;4.346;2023-07-09T12:55:41;26.50;99.90
30893;DHT22;17595;50.884;4.346;2023-07-09T12:58:18;26.40;99.90
30893;DHT22;17595;50.884;4.346;2023-07-09T13:00:46;26.20;99.90
30893;DHT22;17595;50.884;4.346;2023-07-09T13:03:17;26.20;99.90
30893;DHT22;17595;50.884;4.346;2023-07-09T13:05:56;26.10;99.90
30893;DHT22;17595;50.884;4.346;2023-07-09T13:08:23;26.10;99.90
30893;DHT22;17595;50.884;4.346;2023-07-09T13:10:49;26.10;99.90
30893;DHT22;17595;50.884;4.346;2023-07-09T13:13:18;25.90;99.90
30893;DHT22;17595;50.884;4.346;2023-07-09T13:15:44;25.70;99.90
30893;DHT22;17595;50.884;4.346;2023-07-09T13:18:13;25.70;99.90
30893;DHT22;17595;50.884;4.346;2023-07-09T13:20:40;25.40;99.90
30893;DHT22;17595;50.884;4.346;2023-07-09T13:23:14;25.20;99.90
30893;DHT22;17595;50.884;4.346;2023-07-09T13:25:39;25.10;99.90
30893;DHT22;17595;50.884;4.346;2023-07-09T13:28:10;25.10;99.90
30893;DHT22;17595;50.884;4.346;2023-07-09T13:30:37;25.20;99.90
30893;DHT22;17595;50.884;4.346;2023-07-09T13:33:04;25.50;99.90
30893;DHT22;17595;50.884;4.346;2023-07-09T13:35:32;25.40;99.90
30893;DHT22;17595;50.884;4.346;2023-07-09T13:37:58;25.60;99.90
30893;DHT22;17595;50.884;4.346;2023-07-09T13:40:23;25.70;99.90
30893;DHT22;17595;50.884;4.346;2023-07-09T13:42:49;25.90;99.90
30893;DHT22;17595;50.884;4.346;2023-07-09T13:45:22;25.90;99.90
30893;DHT22;17595;50.884;4.346;2023-07-09T13:47:49;26.10;99.90
30893;DHT22;17595;50.884;4.346;2023-07-09T13:50:16;26.40;99.90
30893;DHT22;17595;50.884;4.346;2023-07-09T13:52:41;26.50;99.90
30893;DHT22;17595;50.884;4.346;2023-07-09T13:55:10;26.70;99.90
30893;DHT22;17595;50.884;4.346;2023-07-09T13:57:40;26.60;99.90
30893;DHT22;17595;50.884;4.346;2023-07-09T14:00:07;26.40;99.90
30893;DHT22;17595;50.884;4.346;2023-07-09T14:02:33;26.40;99.90
30893;DHT22;17595;50.884;4.346;2023-07-09T14:04:59;26.50;99.90
30893;DHT22;17595;50.884;4.346;2023-07-09T14:07:28;26.90;99.90
30893;DHT22;17595;50.884;4.346;2023-07-09T14:09:55;27.30;99.90
30893;DHT22;17595;50.884;4.346;2023-07-09T14:12:20;27.50;99.90
30893;DHT22;17595;50.884;4.346;2023-07-09T14:14:46;27.90;99.90
30893;DHT22;17595;50.884;4.346;2023-07-09T14:17:12;27.90;99.90
30893;DHT22;17595;50.884;4.346;2023-07-09T14:19:38;27.90;99.90
30893;DHT22;17595;50.884;4.346;2023-07-09T14:22:04;27.90;99.90
30893;DHT22;17595;50.884;4.346;2023-07-09T14:24:40;28.10;99.90
30893;DHT22;17595;50.884;4.346;2023-07-09T14:27:07;28.20;99.90
30893;DHT22;17595;50.884;4.346;2023-07-09T14:29:33;28.10;99.90
30893;DHT22;17595;50.884;4.346;2023-07-09T14:31:59;27.90;99.90
30893;DHT22;17595;50.884;4.346;2023-07-09T14:34:28;27.70;99.90
30893;DHT22;17595;50.884;4.346;2023-07-09T14:36:54;27.90;99.90
30893;DHT22;17595;50.884;4.346;2023-07-09T14:39:20;27.90;99.90
30893;DHT22;17595;50.884;4.346;2023-07-09T14:41:46;28.10;99.90
30893;DHT22;17595;50.884;4.346;2023-07-09T14:44:19;27.90;99.90
30893;DHT22;17595;50.884;4.346;2023-07-09T14:46:47;28.00;99.90
30893;DHT22;17595;50.884;4.346;2023-07-09T14:49:13;28.20;99.90
30893;DHT22;17595;50.884;4.346;2023-07-09T14:51:38;28.00;99.90
30893;DHT22;17595;50.884;4.346;2023-07-09T14:54:10;28.20;99.90
30893;DHT22;17595;50.884;4.346;2023-07-09T14:56:36;28.20;99.90
30893;DHT22;17595;50.884;4.346;2023-07-09T14:59:01;28.40;99.90
30893;DHT22;17595;50.884;4.346;2023-07-09T15:01:26;28.40;99.90
30893;DHT22;17595;50.884;4.346;2023-07-09T15:03:52;28.60;99.90
30893;DHT22;17595;50.884;4.346;2023-07-09T15:06:17;28.90;99.90
30893;DHT22;17595;50.884;4.346;2023-07-09T15:08:43;28.90;99.90
30893;DHT22;17595;50.884;4.346;2023-07-09T15:11:08;28.60;99.90
30893;DHT22;17595;50.884;4.346;2023-07-09T15:13:35;28.50;99.90
30893;DHT22;17595;50.884;4.346;2023-07-09T15:16:01;28.50;99.90
30893;DHT22;17595;50.884;4.346;2023-07-09T15:18:27;28.70;99.90
30893;DHT22;17595;50.884;4.346;2023-07-09T15:20:54;28.80;99.90
30893;DHT22;17595;50.884;4.346;2023-07-09T15:23:21;28.10;99.90
30893;DHT22;17595;50.884;4.346;2023-07-09T15:25:49;27.60;99.90
30893;DHT22;17595;50.884;4.346;2023-07-09T15:28:16;27.10;99.90
30893;DHT22;17595;50.884;4.346;2023-07-09T15:30:41;26.80;99.90
30893;DHT22;17595;50.884;4.346;2023-07-09T15:33:15;26.50;99.90
30893;DHT22;17595;50.884;4.346;2023-07-09T15:35:41;26.30;99.90
30893;DHT22;17595;50.884;4.346;2023-07-09T15:40:45;26.20;99.90
30893;DHT22;17595;50.884;4.346;2023-07-09T15:43:11;26.20;99.90
30893;DHT22;17595;50.884;4.346;2023-07-09T15:45:41;26.50;99.90
30893;DHT22;17595;50.884;4.346;2023-07-09T15:48:08;26.50;99.90
30893;DHT22;17595;50.884;4.346;2023-07-09T15:50:37;26.70;99.90
30893;DHT22;17595;50.884;4.346;2023-07-09T15:53:04;26.90;99.90
30893;DHT22;17595;50.884;4.346;2023-07-09T15:55:29;27.00;99.90
30893;DHT22;17595;50.884;4.346;2023-07-09T15:57:55;27.10;99.90
30893;DHT22;17595;50.884;4.346;2023-07-09T16:00:22;27.40;99.90
30893;DHT22;17595;50.884;4.346;2023-07-09T16:02:48;27.40;99.90
30893;DHT22;17595;50.884;4.346;2023-07-09T16:07:46;27.60;99.90
30893;DHT22;17595;50.884;4.346;2023-07-09T16:10:12;27.60;99.90
30893;DHT22;17595;50.884;4.346;2023-07-09T16:12:37;27.40;99.90
30893;DHT22;17595;50.884;4.346;2023-07-09T16:15:03;26.90;99.90